Steam Corners, Ohio
Current Conditions -  °F | °C
As of 6:52 PM on Wednesday 22 Oct 2014 (Local Time) from KMFD Reporting Station
Overcast Overcast  
Wind Chill: 46°   Ceiling: 3100
Heat Index: 48°   Visibility: 10mi
Dew Point: 41°   Wind: 5mph
Humidity: 77%   Direction: 340°NNW
Pressure: 30.25"   Gusts: NA
Location:  40.6648°N, 82.6104°W
Report Text: KMFD 222252Z 34004KT 10SM OVC031 09/05 A3025 RMK AO2 SLP248 T00890050
Loading
Personal Weather Stations






























Interactive Weather Map
Tropical Storm Tracking
New forecast layout! Learn more

10-Day Weather Forecast

Advertisements
Track Severe Weather on mobile